Time;durP1;ratioP1;P1;durP2;ratioP2;P2;SDS_P1;SDS_P2;PMS_P1;PMS_P2;Temp;Humidity;BMP_temperature;BMP_pressure;BME280_temperature;BME280_humidity;BME280_pressure;Samples;Min_cycle;Max_cycle;Signal;HPM_P1;HPM_P2
2023/07/13 00:02:38;;;;;;;15.32;5.53;;;;;;;;;;6240495;23;20331;-90
2023/07/13 00:09:37;;;;;;;11.60;6.05;;;;;;;;;;6239502;23;20550;-90
2023/07/13 00:12:44;;;;;;;14.93;7.30;;;;;;;;;;6238953;23;20272;-90
2023/07/13 00:15:49;;;;;;;16.70;6.75;;;;;;;;;;6239521;23;20178;-92
2023/07/13 00:18:54;;;;;;;12.57;6.57;;;;;;;;;;6237897;23;20217;-91
2023/07/13 00:22:29;;;;;;;12.98;6.78;;;;;;;;;;6237621;22;20190;-92
2023/07/13 00:25:35;;;;;;;11.52;6.90;;;;;;;;;;6238440;23;20166;-91
2023/07/13 00:28:41;;;;;;;13.77;7.60;;;;;;;;;;6238051;23;20166;-90
2023/07/13 00:31:47;;;;;;;14.25;7.53;;;;;;;;;;6238702;22;20285;-89
2023/07/13 00:34:52;;;;;;;16.13;8.10;;;;;;;;;;6239190;23;20166;-91
2023/07/13 00:37:57;;;;;;;18.65;8.13;;;;;;;;;;6238805;22;20182;-90
2023/07/13 00:41:04;;;;;;;15.85;8.10;;;;;;;;;;6238337;22;20191;-91
2023/07/13 00:44:14;;;;;;;14.60;7.90;;;;;;;;;;6238860;23;20254;-91
2023/07/13 00:47:20;;;;;;;13.63;7.82;;;;;;;;;;6241017;22;20167;-91
2023/07/13 00:50:26;;;;;;;17.67;8.25;;;;;;;;;;6239039;22;20178;-89
2023/07/13 00:53:33;;;;;;;14.93;7.90;;;;;;;;;;6240647;22;20154;-92
2023/07/13 00:56:39;;;;;;;14.70;8.10;;;;;;;;;;6239988;22;20209;-91
2023/07/13 00:59:48;;;;;;;13.95;8.95;;;;;;;;;;6241167;23;20490;-90
2023/07/13 01:02:53;;;;;;;14.50;7.55;;;;;;;;;;6240879;23;20154;-93
2023/07/13 01:06:02;;;;;;;13.65;7.40;;;;;;;;;;6239985;22;20209;-89
2023/07/13 01:09:10;;;;;;;13.65;7.53;;;;;;;;;;6241201;23;20150;-91
2023/07/13 01:12:15;;;;;;;12.13;6.85;;;;;;;;;;6241178;22;20193;-92
2023/07/13 01:15:38;;;;;;;13.30;6.72;;;;;;;;;;6241829;23;20166;-91
2023/07/13 01:18:43;;;;;;;12.35;7.28;;;;;;;;;;6241742;23;20210;-91
2023/07/13 01:22:25;;;;;;;13.07;7.20;;;;;;;;;;6240553;23;20189;-88
2023/07/13 01:25:31;;;;;;;13.35;7.55;;;;;;;;;;6242610;23;20169;-91
2023/07/13 01:28:37;;;;;;;14.13;7.88;;;;;;;;;;6240238;23;20190;-91
2023/07/13 01:31:44;;;;;;;13.88;7.18;;;;;;;;;;6240250;22;20270;-90
2023/07/13 01:34:49;;;;;;;12.52;6.90;;;;;;;;;;6240215;23;20206;-87
2023/07/13 01:37:56;;;;;;;14.38;7.28;;;;;;;;;;6241192;22;20239;-89
2023/07/13 01:41:04;;;;;;;17.73;7.63;;;;;;;;;;6243704;23;20269;-90
2023/07/13 01:44:09;;;;;;;17.35;7.72;;;;;;;;;;6248931;23;20174;-92
2023/07/13 01:47:15;;;;;;;16.65;7.60;;;;;;;;;;6248395;23;20174;-93
2023/07/13 01:50:20;;;;;;;14.85;7.30;;;;;;;;;;6245674;23;20171;-91
2023/07/13 01:53:33;;;;;;;15.73;6.97;;;;;;;;;;6243669;22;20221;-90
2023/07/13 01:56:43;;;;;;;14.85;7.22;;;;;;;;;;6248837;23;20170;-91
2023/07/13 01:59:48;;;;;;;14.05;6.90;;;;;;;;;;6236445;23;20240;-91
2023/07/13 02:02:54;;;;;;;13.82;6.78;;;;;;;;;;6235736;23;20202;-91
2023/07/13 02:06:08;;;;;;;12.15;6.40;;;;;;;;;;6232998;23;20178;-88
2023/07/13 02:09:13;;;;;;;12.10;5.88;;;;;;;;;;6236402;22;20166;-90
2023/07/13 02:12:19;;;;;;;12.32;5.32;;;;;;;;;;6236863;23;20205;-93
2023/07/13 02:15:24;;;;;;;10.73;5.90;;;;;;;;;;6236507;23;20170;-92
2023/07/13 02:18:34;;;;;;;10.77;5.60;;;;;;;;;;6236465;23;20174;-91
2023/07/13 02:21:39;;;;;;;11.30;6.78;;;;;;;;;;6234667;23;20270;-89
2023/07/13 02:24:44;;;;;;;11.27;5.93;;;;;;;;;;6234646;23;20169;-90
2023/07/13 02:27:51;;;;;;;9.60;5.70;;;;;;;;;;6235768;23;20162;-92
2023/07/13 02:30:56;;;;;;;11.35;5.75;;;;;;;;;;6235858;23;20175;-91
2023/07/13 02:34:02;;;;;;;9.50;5.47;;;;;;;;;;6235845;23;20170;-91
2023/07/13 02:37:07;;;;;;;9.38;5.43;;;;;;;;;;6234343;23;20167;-90
2023/07/13 02:40:13;;;;;;;10.02;5.10;;;;;;;;;;6235563;23;20181;-92
2023/07/13 02:43:19;;;;;;;11.00;5.28;;;;;;;;;;6236313;23;20237;-91
2023/07/13 02:46:25;;;;;;;11.82;5.75;;;;;;;;;;6236116;23;20209;-91
2023/07/13 02:49:30;;;;;;;9.73;5.57;;;;;;;;;;6236357;23;20170;-93
2023/07/13 02:52:36;;;;;;;8.55;5.40;;;;;;;;;;6235082;23;20170;-92
2023/07/13 02:55:47;;;;;;;12.23;5.97;;;;;;;;;;6236883;22;20163;-92
2023/07/13 02:58:54;;;;;;;8.98;5.30;;;;;;;;;;6235151;22;20170;-89
2023/07/13 03:01:59;;;;;;;9.35;5.10;;;;;;;;;;6236123;23;20676;-89
2023/07/13 03:05:38;;;;;;;9.00;4.70;;;;;;;;;;6235709;23;20171;-91
2023/07/13 03:08:44;;;;;;;11.07;4.78;;;;;;;;;;6235049;23;20175;-90
2023/07/13 03:11:49;;;;;;;12.60;5.10;;;;;;;;;;6235642;22;20171;-90
2023/07/13 03:15:02;;;;;;;9.70;4.88;;;;;;;;;;6237262;23;20209;-90
2023/07/13 03:18:07;;;;;;;11.00;4.72;;;;;;;;;;6236050;23;20581;-90
2023/07/13 03:21:12;;;;;;;11.18;4.93;;;;;;;;;;6235956;23;20186;-89
2023/07/13 03:24:19;;;;;;;8.95;4.10;;;;;;;;;;6238138;23;20151;-91
2023/07/13 03:27:24;;;;;;;6.93;3.90;;;;;;;;;;6236929;22;20171;-88
2023/07/13 03:30:31;;;;;;;6.03;4.03;;;;;;;;;;6236950;23;20226;-91
2023/07/13 03:33:37;;;;;;;7.03;4.15;;;;;;;;;;6237795;23;20266;-91
2023/07/13 03:36:43;;;;;;;11.02;4.65;;;;;;;;;;6236991;23;20203;-92
2023/07/13 03:39:51;;;;;;;16.88;4.68;;;;;;;;;;6246416;22;20179;-89
2023/07/13 03:42:58;;;;;;;10.57;4.68;;;;;;;;;;6238389;23;20190;-91
2023/07/13 03:46:05;;;;;;;10.27;5.25;;;;;;;;;;6238718;23;20170;-89
2023/07/13 03:49:10;;;;;;;10.65;5.32;;;;;;;;;;6238789;23;20337;-90
2023/07/13 03:52:15;;;;;;;11.27;4.97;;;;;;;;;;6238263;23;20162;-89
2023/07/13 03:55:20;;;;;;;12.15;5.35;;;;;;;;;;6237292;23;20500;-88
2023/07/13 03:58:31;;;;;;;11.93;5.35;;;;;;;;;;6239361;23;20147;-92
2023/07/13 04:01:45;;;;;;;10.85;4.57;;;;;;;;;;6239782;23;20325;-89
2023/07/13 04:05:16;;;;;;;9.52;4.50;;;;;;;;;;6238101;23;20290;-89
2023/07/13 04:08:23;;;;;;;10.23;3.85;;;;;;;;;;6237488;23;20177;-90
2023/07/13 04:11:31;;;;;;;16.42;4.80;;;;;;;;;;6238430;22;20228;-90
2023/07/13 04:14:36;;;;;;;13.98;4.80;;;;;;;;;;6238452;23;20598;-89
2023/07/13 04:17:43;;;;;;;14.00;4.47;;;;;;;;;;6237300;23;20166;-92
2023/07/13 04:20:49;;;;;;;8.23;4.15;;;;;;;;;;6239357;23;20178;-92
2023/07/13 04:24:13;;;;;;;7.80;3.97;;;;;;;;;;6239269;22;20269;-89
2023/07/13 04:27:19;;;;;;;14.40;4.85;;;;;;;;;;6239886;23;20170;-91
2023/07/13 04:30:24;;;;;;;12.82;3.80;;;;;;;;;;6239825;23;20170;-91
2023/07/13 04:33:30;;;;;;;12.05;4.30;;;;;;;;;;6239378;23;20177;-91
2023/07/13 04:36:37;;;;;;;8.95;4.28;;;;;;;;;;6237920;23;20174;-89
2023/07/13 04:39:42;;;;;;;15.88;4.22;;;;;;;;;;6239302;23;20174;-90
2023/07/13 04:42:47;;;;;;;16.75;5.00;;;;;;;;;;6239413;23;20190;-92
2023/07/13 04:45:52;;;;;;;9.05;3.83;;;;;;;;;;6241148;23;20294;-92
2023/07/13 04:48:59;;;;;;;10.02;3.83;;;;;;;;;;6241086;23;20174;-90
2023/07/13 04:52:05;;;;;;;12.05;3.97;;;;;;;;;;6238419;23;20237;-91
2023/07/13 04:55:10;;;;;;;12.38;3.75;;;;;;;;;;6238588;23;20171;-91
2023/07/13 04:58:15;;;;;;;8.52;3.80;;;;;;;;;;6239235;23;20166;-92
2023/07/13 05:01:20;;;;;;;9.18;3.90;;;;;;;;;;6238710;23;20294;-91
2023/07/13 05:04:27;;;;;;;9.15;3.03;;;;;;;;;;6238310;23;20294;-92
2023/07/13 05:07:40;;;;;;;5.93;2.83;;;;;;;;;;6237052;23;20166;-92
2023/07/13 05:10:45;;;;;;;10.40;3.60;;;;;;;;;;6237711;23;20167;-90
2023/07/13 05:13:50;;;;;;;9.20;3.80;;;;;;;;;;6238698;22;20190;-90
2023/07/13 05:16:57;;;;;;;9.48;3.33;;;;;;;;;;6242242;22;20341;-92
2023/07/13 05:20:14;;;;;;;8.10;2.67;;;;;;;;;;6241740;23;20290;-90
2023/07/13 05:23:21;;;;;;;10.93;2.95;;;;;;;;;;6266805;22;20217;-91
2023/07/13 05:26:26;;;;;;;10.65;2.92;;;;;;;;;;6244902;23;20166;-91
2023/07/13 05:29:32;;;;;;;7.30;2.58;;;;;;;;;;6244352;22;20162;-90
2023/07/13 05:32:38;;;;;;;5.50;2.58;;;;;;;;;;6241819;23;20162;-89
2023/07/13 05:35:45;;;;;;;4.88;2.28;;;;;;;;;;6243998;23;20170;-91
2023/07/13 05:38:50;;;;;;;8.70;2.95;;;;;;;;;;6241164;23;20186;-91
2023/07/13 05:41:56;;;;;;;5.60;2.60;;;;;;;;;;6243942;23;20194;-92
2023/07/13 05:45:02;;;;;;;5.90;2.70;;;;;;;;;;6243404;22;20234;-92
2023/07/13 05:48:07;;;;;;;10.55;2.72;;;;;;;;;;6245817;23;20194;-91
2023/07/13 05:51:15;;;;;;;9.35;2.95;;;;;;;;;;6250488;23;20199;-90
2023/07/13 05:54:21;;;;;;;8.55;2.75;;;;;;;;;;6243617;23;20222;-91
2023/07/13 23:28:01;;;;;;;8.98;3.70;;;;;;;;;;6260996;22;20218;-89
2023/07/13 23:31:06;;;;;;;9.15;3.60;;;;;;;;;;6244711;23;20193;-91
2023/07/13 23:34:13;;;;;;;9.77;3.70;;;;;;;;;;6244483;23;20486;-90
2023/07/13 23:37:19;;;;;;;9.82;4.03;;;;;;;;;;6243379;23;20202;-90
2023/07/13 23:40:28;;;;;;;10.10;4.03;;;;;;;;;;6240750;23;20169;-90
2023/07/13 23:43:34;;;;;;;7.75;3.97;;;;;;;;;;6241866;23;20194;-90
2023/07/13 23:46:41;;;;;;;8.38;3.88;;;;;;;;;;6240175;23;20156;-90
2023/07/13 23:49:47;;;;;;;8.82;4.07;;;;;;;;;;6242015;23;20162;-91
2023/07/13 23:52:52;;;;;;;8.45;4.70;;;;;;;;;;6243381;23;20194;-91
2023/07/13 23:55:58;;;;;;;9.05;4.40;;;;;;;;;;6242608;22;20607;-89
2023/07/13 23:59:04;;;;;;;8.50;3.90;;;;;;;;;;6241792;23;20197;-92
